Time;durP1;ratioP1;P1;durP2;ratioP2;P2;SDS_P1;SDS_P2;PMS_P1;PMS_P2;Temp;Humidity;BMP_temperature;BMP_pressure;BME280_temperature;BME280_humidity;BME280_pressure;Samples;Min_cycle;Max_cycle;Signal;HPM_P1;HPM_P2
2023/03/06 00:00:25;;;;;;;15.93;8.05;;;2.10;99.90;;;;;;5038100;28;25062;-72
2023/03/06 00:02:53;;;;;;;30.40;7.97;;;2.10;99.90;;;;;;5038004;28;25052;-72
2023/03/06 00:05:20;;;;;;;19.05;7.97;;;2.10;99.90;;;;;;5037885;28;25052;-72
2023/03/06 00:07:48;;;;;;;16.25;9.20;;;2.20;99.90;;;;;;5038222;28;25086;-72
2023/03/06 00:10:22;;;;;;;21.55;10.15;;;2.20;99.90;;;;;;5020301;28;24806;-72
2023/03/06 00:12:53;;;;;;;20.88;9.82;;;2.20;99.90;;;;;;5038344;28;25099;-72
2023/03/06 00:15:21;;;;;;;21.13;9.18;;;2.20;99.90;;;;;;5037761;28;25126;-72
2023/03/06 00:17:49;;;;;;;20.35;8.93;;;2.20;99.90;;;;;;5038332;28;25097;-72
2023/03/06 00:20:17;;;;;;;20.50;9.18;;;2.20;99.90;;;;;;5037774;28;25069;-72
2023/03/06 00:22:45;;;;;;;21.63;10.13;;;2.20;99.90;;;;;;5020062;28;25054;-72
2023/03/06 00:25:15;;;;;;;16.70;8.35;;;2.20;99.90;;;;;;5038055;28;25066;-72
2023/03/06 00:27:43;;;;;;;24.65;10.52;;;2.20;99.90;;;;;;5037534;28;25125;-72
2023/03/06 00:30:22;;;;;;;19.45;8.55;;;2.20;99.90;;;;;;5037560;28;25120;-72
2023/03/06 00:32:49;;;;;;;20.85;8.57;;;2.10;99.90;;;;;;5036374;28;25108;-72
2023/03/06 00:35:17;;;;;;;19.58;9.00;;;2.10;99.90;;;;;;5037986;28;25103;-72
2023/03/06 00:37:44;;;;;;;21.15;8.65;;;2.10;99.90;;;;;;5037381;28;25154;-72
2023/03/06 00:40:15;;;;;;;19.13;8.98;;;2.00;99.90;;;;;;5037508;28;25125;-72
2023/03/06 00:42:43;;;;;;;20.25;8.82;;;2.00;99.90;;;;;;5059605;28;25068;-72
2023/03/06 00:45:10;;;;;;;19.45;8.60;;;1.90;99.90;;;;;;5056009;28;25064;-72
2023/03/06 00:47:37;;;;;;;20.88;8.55;;;1.90;99.90;;;;;;5057130;28;25071;-72
2023/03/06 00:50:05;;;;;;;19.83;8.88;;;1.90;99.90;;;;;;5057065;28;25053;-72
2023/03/06 00:52:32;;;;;;;20.98;8.57;;;1.80;99.90;;;;;;5057192;28;25087;-72
2023/03/06 00:54:59;;;;;;;16.88;8.27;;;1.80;99.90;;;;;;5039302;28;25055;-72
2023/03/06 00:57:27;;;;;;;17.65;8.18;;;1.70;99.90;;;;;;5056294;28;25126;-72
2023/03/06 00:59:54;;;;;;;20.55;8.90;;;1.70;99.90;;;;;;5039267;28;25089;-72
2023/03/06 01:02:21;;;;;;;23.35;9.23;;;1.70;99.90;;;;;;5055948;28;25071;-72
2023/03/06 01:04:48;;;;;;;20.63;8.85;;;1.70;99.90;;;;;;5055641;28;25115;-72
2023/03/06 01:07:15;;;;;;;18.20;7.97;;;1.60;99.90;;;;;;5057370;28;25062;-72
2023/03/06 01:09:43;;;;;;;19.23;9.73;;;1.60;99.90;;;;;;5055633;28;25084;-72
2023/03/06 01:12:11;;;;;;;21.85;9.52;;;1.60;99.90;;;;;;5056887;28;25064;-72
2023/03/06 01:14:38;;;;;;;20.48;9.32;;;1.60;99.90;;;;;;5056667;28;25066;-72
2023/03/06 01:17:05;;;;;;;19.92;9.50;;;1.50;99.90;;;;;;5056666;28;25065;-72
2023/03/06 01:19:32;;;;;;;24.13;8.23;;;1.50;99.90;;;;;;5056596;28;25115;-72
2023/03/06 01:21:59;;;;;;;19.88;8.68;;;1.50;99.90;;;;;;5056455;28;25107;-72
2023/03/06 01:24:27;;;;;;;24.40;9.55;;;1.50;99.90;;;;;;5055375;28;25104;-72
2023/03/06 01:26:54;;;;;;;22.02;9.57;;;1.50;99.90;;;;;;5056400;28;25135;-72
2023/03/06 01:29:22;;;;;;;22.27;9.30;;;1.40;99.90;;;;;;5056971;28;25064;-72
2023/03/06 01:31:49;;;;;;;21.33;9.25;;;1.40;99.90;;;;;;5055977;28;25060;-72
2023/03/06 01:34:16;;;;;;;22.33;9.45;;;1.30;99.90;;;;;;5056599;28;25107;-72
2023/03/06 01:36:44;;;;;;;18.63;9.55;;;1.30;99.90;;;;;;5056468;28;25154;-72
2023/03/06 01:39:11;;;;;;;21.17;9.93;;;1.30;99.90;;;;;;5055260;28;25120;-72
2023/03/06 01:41:39;;;;;;;21.92;9.43;;;1.30;99.90;;;;;;5055100;28;25067;-72
2023/03/06 01:44:06;;;;;;;26.17;12.07;;;1.30;99.90;;;;;;5055749;28;25078;-72
2023/03/06 01:46:41;;;;;;;22.13;11.02;;;1.20;99.90;;;;;;5056690;28;25054;-72
2023/03/06 01:49:24;;;;;;;28.65;12.43;;;1.20;99.90;;;;;;5056699;28;25082;-72
2023/03/06 01:51:55;;;;;;;36.17;14.43;;;1.20;99.90;;;;;;5056231;28;25058;-72
2023/03/06 01:54:48;;;;;;;29.33;12.90;;;1.20;99.90;;;;;;5056178;28;25136;-72
2023/03/06 01:57:25;;;;;;;31.42;14.23;;;1.20;99.90;;;;;;5056887;28;25064;-72
2023/03/06 02:00:06;;;;;;;38.03;15.35;;;1.20;99.90;;;;;;5056138;28;25108;-72
2023/03/06 02:02:34;;;;;;;33.80;14.13;;;1.30;99.90;;;;;;5056413;28;25046;-72
2023/03/06 02:05:06;;;;;;;32.03;14.77;;;1.30;99.90;;;;;;5056012;28;25161;-72
2023/03/06 02:07:35;;;;;;;32.42;14.55;;;1.30;99.90;;;;;;5057789;28;25060;-72
2023/03/06 02:10:03;;;;;;;32.28;15.00;;;1.30;99.90;;;;;;5060179;28;25113;-72
2023/03/06 02:12:30;;;;;;;30.50;14.60;;;1.30;99.90;;;;;;5060520;28;25054;-72
2023/03/06 02:14:58;;;;;;;33.85;15.90;;;1.30;99.90;;;;;;5060287;28;25147;-72
2023/03/06 02:17:26;;;;;;;33.55;15.52;;;1.40;99.90;;;;;;5060198;28;25059;-72
2023/03/06 02:20:20;;;;;;;35.97;15.20;;;1.40;99.90;;;;;;5060185;28;25140;-72
2023/03/06 02:23:01;;;;;;;32.20;14.55;;;1.40;99.90;;;;;;5060440;28;25068;-72
2023/03/06 02:25:45;;;;;;;33.17;15.82;;;1.40;99.90;;;;;;5059790;28;25065;-72
2023/03/06 02:28:16;;;;;;;30.02;13.80;;;1.50;99.90;;;;;;5060501;28;25069;-72
2023/03/06 02:30:46;;;;;;;33.95;15.32;;;1.50;99.90;;;;;;5059937;28;25101;-72
2023/03/06 02:33:21;;;;;;;30.67;13.65;;;1.50;99.90;;;;;;5059991;28;25104;-72
2023/03/06 02:36:01;;;;;;;35.45;14.65;;;1.50;99.90;;;;;;5059669;28;25122;-72
2023/03/06 02:38:36;;;;;;;30.58;13.90;;;1.50;99.90;;;;;;5059622;28;25097;-72
2023/03/06 02:41:08;;;;;;;32.03;14.05;;;1.50;99.90;;;;;;5059511;28;25077;-72
2023/03/06 02:43:39;;;;;;;33.15;14.65;;;1.50;99.90;;;;;;5059509;28;25079;-72
2023/03/06 02:46:07;;;;;;;31.88;15.10;;;1.60;99.90;;;;;;5058276;28;25094;-72
2023/03/06 02:48:34;;;;;;;33.10;14.55;;;1.60;99.90;;;;;;5059647;28;25108;-72
2023/03/06 02:51:01;;;;;;;29.40;13.68;;;1.60;99.90;;;;;;5042497;28;25134;-72
2023/03/06 02:53:29;;;;;;;33.33;14.48;;;1.50;99.90;;;;;;5059855;28;25081;-72
2023/03/06 02:55:56;;;;;;;30.85;14.60;;;1.60;99.90;;;;;;5041818;28;25086;-72
2023/03/06 02:58:24;;;;;;;29.58;13.30;;;1.50;99.90;;;;;;5059144;28;25080;-72
2023/03/06 03:00:52;;;;;;;32.50;15.18;;;1.60;99.90;;;;;;5058775;28;25110;-72
2023/03/06 03:03:19;;;;;;;33.83;14.93;;;1.60;99.90;;;;;;5059664;28;25104;-72
2023/03/06 03:05:47;;;;;;;32.55;15.20;;;1.60;99.90;;;;;;5059156;28;25069;-72
2023/03/06 03:08:14;;;;;;;36.92;15.60;;;1.60;99.90;;;;;;5057916;28;25053;-72
2023/03/06 03:10:42;;;;;;;37.05;15.73;;;1.60;99.90;;;;;;5058907;28;25052;-72
2023/03/06 03:13:10;;;;;;;35.00;16.42;;;1.60;99.90;;;;;;5058859;28;25084;-72
2023/03/06 03:15:37;;;;;;;30.85;14.45;;;1.70;99.90;;;;;;5059079;28;25074;-72
2023/03/06 03:18:04;;;;;;;33.88;15.95;;;1.70;99.90;;;;;;5058817;28;25063;-72
2023/03/06 03:20:31;;;;;;;35.00;16.52;;;1.60;99.90;;;;;;5058400;28;25068;-72
2023/03/06 03:22:58;;;;;;;31.48;15.65;;;1.70;99.90;;;;;;5058642;28;25060;-72
2023/03/06 03:25:26;;;;;;;35.17;16.48;;;1.70;99.90;;;;;;5058755;28;25063;-72
2023/03/06 03:27:53;;;;;;;32.75;14.75;;;1.70;99.90;;;;;;5058650;28;25115;-72
2023/03/06 03:30:20;;;;;;;33.78;14.85;;;1.70;99.90;;;;;;5058613;28;25054;-72
2023/03/06 03:32:48;;;;;;;37.42;18.08;;;1.70;99.90;;;;;;5059412;28;25091;-72
2023/03/06 03:35:15;;;;;;;31.88;15.02;;;1.70;99.90;;;;;;5058736;28;25131;-72
2023/03/06 03:37:42;;;;;;;34.20;16.75;;;1.60;99.90;;;;;;5059036;28;25078;-72
2023/03/06 03:40:10;;;;;;;27.33;12.48;;;1.60;99.90;;;;;;5058488;28;25129;-72
2023/03/06 03:42:38;;;;;;;31.45;15.27;;;1.60;99.90;;;;;;5057099;28;25135;-72
2023/03/06 03:45:06;;;;;;;37.63;17.10;;;1.60;99.90;;;;;;5058795;28;25060;-72
2023/03/06 03:47:33;;;;;;;32.17;15.05;;;1.60;99.90;;;;;;5058590;28;25127;-72
2023/03/06 03:50:00;;;;;;;37.80;16.13;;;1.60;99.90;;;;;;5040622;28;25095;-72
2023/03/06 03:52:28;;;;;;;33.92;16.50;;;1.60;99.90;;;;;;5058245;28;25071;-72
2023/03/06 03:54:55;;;;;;;33.95;15.13;;;1.60;99.90;;;;;;5057065;28;25082;-72
2023/03/06 03:57:22;;;;;;;34.28;16.85;;;1.60;99.90;;;;;;5057153;28;25062;-72
2023/03/06 03:59:49;;;;;;;34.88;16.80;;;1.60;99.90;;;;;;5058594;28;25105;-72
2023/03/06 04:02:16;;;;;;;33.92;16.27;;;1.60;99.90;;;;;;5058608;28;25088;-72
2023/03/06 04:04:44;;;;;;;34.33;16.52;;;1.60;99.90;;;;;;5056799;28;25143;-72
2023/03/06 04:07:12;;;;;;;30.17;16.13;;;1.70;99.90;;;;;;5058625;28;25121;-72
2023/03/06 04:09:39;;;;;;;30.67;16.08;;;1.70;99.90;;;;;;5057893;28;25072;-72
2023/03/06 04:12:07;;;;;;;32.13;14.73;;;1.70;99.90;;;;;;5057813;28;25082;-72
2023/03/06 04:14:34;;;;;;;37.67;16.85;;;1.70;99.90;;;;;;5057780;28;25059;-72
2023/03/06 04:17:02;;;;;;;30.02;15.60;;;1.70;99.90;;;;;;5058203;28;25129;-72
2023/03/06 04:19:29;;;;;;;31.80;15.52;;;1.70;99.90;;;;;;5057681;28;25055;-72
2023/03/06 04:21:57;;;;;;;31.58;15.77;;;1.70;99.90;;;;;;5058229;28;25121;-72
2023/03/06 04:24:25;;;;;;;33.58;15.13;;;1.70;99.90;;;;;;5057779;28;25055;-72
2023/03/06 04:26:52;;;;;;;38.67;16.77;;;1.70;99.90;;;;;;5057683;28;25064;-72
2023/03/06 04:29:20;;;;;;;28.90;14.45;;;1.70;99.90;;;;;;5057373;28;25116;-72
2023/03/06 04:31:48;;;;;;;31.73;15.65;;;1.60;99.90;;;;;;5056800;28;25147;-72
2023/03/06 04:34:16;;;;;;;32.58;15.32;;;1.60;99.90;;;;;;5056329;28;25130;-72
2023/03/06 04:36:46;;;;;;;34.40;15.80;;;1.60;99.90;;;;;;5056526;28;25046;-72
2023/03/06 04:39:14;;;;;;;30.40;13.40;;;1.60;99.90;;;;;;5056262;28;25064;-72
2023/03/06 04:41:41;;;;;;;28.55;15.10;;;1.50;99.90;;;;;;5034995;28;25110;-72
2023/03/06 04:44:09;;;;;;;33.28;15.48;;;1.50;99.90;;;;;;5037609;28;25073;-72
2023/03/06 04:46:37;;;;;;;31.15;14.00;;;1.40;99.90;;;;;;5020135;28;25056;-72
2023/03/06 04:49:04;;;;;;;27.83;14.38;;;1.40;99.90;;;;;;5037123;28;25135;-72
2023/03/06 04:51:32;;;;;;;28.42;14.70;;;1.40;99.90;;;;;;5037678;28;25057;-72
2023/03/06 04:54:00;;;;;;;30.55;13.88;;;1.30;99.90;;;;;;5037250;28;25060;-72
2023/03/06 04:56:28;;;;;;;33.13;15.85;;;1.30;99.90;;;;;;5019627;28;25105;-72
2023/03/06 04:58:56;;;;;;;29.88;14.55;;;1.30;99.90;;;;;;5036905;28;25066;-72
2023/03/06 05:01:23;;;;;;;34.47;15.18;;;1.30;99.90;;;;;;5038181;28;25086;-72
2023/03/06 05:03:50;;;;;;;32.83;15.45;;;1.30;99.90;;;;;;5036915;28;25102;-72
2023/03/06 05:06:17;;;;;;;34.85;14.25;;;1.20;99.90;;;;;;5020016;28;25129;-72
2023/03/06 05:08:45;;;;;;;37.15;15.73;;;1.30;99.90;;;;;;5037372;28;25122;-72
2023/03/06 05:11:13;;;;;;;29.98;14.63;;;1.30;99.90;;;;;;5036897;28;25060;-72
2023/03/06 05:13:40;;;;;;;30.27;14.80;;;1.40;99.90;;;;;;5036720;28;25074;-72
2023/03/06 05:16:08;;;;;;;33.47;13.93;;;1.40;99.90;;;;;;5036658;28;25062;-72
2023/03/06 05:18:36;;;;;;;30.58;13.57;;;1.50;99.90;;;;;;5036706;28;25148;-72
2023/03/06 05:21:04;;;;;;;26.90;12.90;;;1.50;99.90;;;;;;5036707;28;25106;-72
2023/03/06 05:23:37;;;;;;;27.33;12.70;;;1.60;99.90;;;;;;5036596;28;25125;-72
2023/03/06 05:26:12;;;;;;;28.90;12.23;;;1.60;99.90;;;;;;5036478;28;25069;-72
2023/03/06 05:28:40;;;;;;;24.75;10.10;;;1.70;99.90;;;;;;5036803;28;25140;-72
2023/03/06 05:31:08;;;;;;;23.60;12.02;;;1.70;99.90;;;;;;5037216;28;25120;-72
2023/03/06 05:33:36;;;;;;;23.38;12.02;;;1.70;99.90;;;;;;5018943;28;25143;-72
2023/03/06 05:36:06;;;;;;;27.67;13.15;;;1.70;99.90;;;;;;5037008;28;25101;-72
2023/03/06 05:38:34;;;;;;;24.50;11.20;;;1.80;99.90;;;;;;5036370;28;25114;-72
2023/03/06 05:41:01;;;;;;;26.42;12.40;;;1.80;99.90;;;;;;5036424;28;25131;-72
2023/03/06 05:43:29;;;;;;;25.35;10.23;;;1.80;99.90;;;;;;5036006;28;25135;-72
2023/03/06 05:46:05;;;;;;;25.88;12.38;;;1.80;99.90;;;;;;5036852;28;25139;-72
2023/03/06 05:48:33;;;;;;;22.77;11.52;;;1.80;99.90;;;;;;5036325;28;25109;-72
2023/03/06 05:51:03;;;;;;;20.73;11.25;;;1.80;99.90;;;;;;5036318;28;25074;-72
2023/03/06 05:53:31;;;;;;;20.13;10.40;;;1.90;99.90;;;;;;5036236;28;25075;-72
2023/03/06 05:56:07;;;;;;;22.67;10.85;;;1.90;99.90;;;;;;5036763;28;25059;-72
2023/03/06 05:58:35;;;;;;;25.33;12.13;;;1.90;99.90;;;;;;5036128;28;25052;-72
2023/03/06 06:01:14;;;;;;;20.33;10.15;;;1.90;99.90;;;;;;5019290;28;25054;-72
2023/03/06 06:03:42;;;;;;;19.80;10.48;;;1.90;99.90;;;;;;5036160;28;25122;-72
2023/03/06 06:06:10;;;;;;;23.83;10.73;;;1.90;99.90;;;;;;5036025;28;25077;-72
2023/03/06 06:08:38;;;;;;;20.42;10.02;;;1.90;99.90;;;;;;5036009;28;25053;-72
2023/03/06 06:11:07;;;;;;;23.23;9.93;;;1.90;99.90;;;;;;5018890;28;25064;-72
2023/03/06 06:13:34;;;;;;;19.95;9.73;;;1.90;99.90;;;;;;5018589;28;25067;-72
2023/03/06 06:16:14;;;;;;;17.35;8.95;;;1.90;99.90;;;;;;5036195;28;25093;-72
2023/03/06 06:18:43;;;;;;;23.00;11.75;;;1.90;99.90;;;;;;5035854;28;25083;-72
2023/03/06 06:21:13;;;;;;;18.65;9.30;;;2.00;99.90;;;;;;5035916;28;25066;-72
2023/03/06 06:23:41;;;;;;;17.40;9.18;;;2.00;99.90;;;;;;5036001;28;25113;-72
2023/03/06 06:26:10;;;;;;;13.55;6.53;;;2.00;99.90;;;;;;5036732;28;25052;-72
2023/03/06 06:28:38;;;;;;;19.50;8.43;;;2.00;99.90;;;;;;5035950;28;25072;-72
2023/03/06 06:31:11;;;;;;;15.70;6.97;;;2.00;99.90;;;;;;5034938;28;25096;-72
2023/03/06 06:33:39;;;;;;;17.02;6.70;;;2.00;99.90;;;;;;5035910;28;25105;-72
2023/03/06 06:36:16;;;;;;;17.27;7.07;;;2.00;99.90;;;;;;5036609;28;25082;-72
2023/03/06 06:38:43;;;;;;;14.73;7.60;;;2.00;99.90;;;;;;5035854;28;25112;-73
2023/03/06 06:41:10;;;;;;;18.80;8.20;;;2.00;99.90;;;;;;5036311;28;25067;-72
2023/03/06 06:43:38;;;;;;;14.10;7.38;;;2.00;99.90;;;;;;5035745;28;25081;-72
2023/03/06 06:46:05;;;;;;;15.68;7.03;;;2.00;99.90;;;;;;5036408;28;25077;-72
2023/03/06 06:48:33;;;;;;;14.73;7.47;;;2.00;99.90;;;;;;5036262;28;25097;-81
2023/03/06 06:51:01;;;;;;;13.20;6.70;;;2.10;99.90;;;;;;5035785;28;25073;-78
2023/03/06 06:53:29;;;;;;;16.38;6.72;;;2.10;99.90;;;;;;5034386;28;25118;-78
2023/03/06 06:55:58;;;;;;;23.50;8.30;;;2.20;99.90;;;;;;5039340;28;25087;-77
2023/03/06 06:58:25;;;;;;;14.88;7.47;;;2.20;99.90;;;;;;5039532;28;25120;-76
2023/03/06 07:00:53;;;;;;;17.77;7.70;;;2.20;99.90;;;;;;5039519;28;25133;-80
2023/03/06 07:03:20;;;;;;;16.05;7.32;;;2.20;99.90;;;;;;5039502;28;25073;-79
2023/03/06 07:05:54;;;;;;;18.27;6.95;;;2.30;99.90;;;;;;5039522;28;25091;-79
2023/03/06 07:08:23;;;;;;;18.75;7.53;;;2.30;99.90;;;;;;5041159;28;25089;-84
2023/03/06 07:10:50;;;;;;;14.10;7.18;;;2.30;99.90;;;;;;5039263;28;25117;-77
2023/03/06 07:13:16;;;;;;;12.80;6.90;;;2.30;99.90;;;;;;5039587;28;25083;-80
2023/03/06 07:15:44;;;;;;;10.00;6.03;;;2.30;99.90;;;;;;5021332;28;25094;-86
2023/03/06 07:18:11;;;;;;;11.45;6.35;;;2.40;99.90;;;;;;5021106;28;25081;-84
2023/03/06 07:20:42;;;;;;;17.10;6.53;;;2.40;99.90;;;;;;5038293;28;25083;-82
2023/03/06 07:23:12;;;;;;;11.82;5.97;;;2.40;99.90;;;;;;5038837;28;25074;-83
2023/03/06 07:25:40;;;;;;;9.70;5.22;;;2.40;99.90;;;;;;5038723;28;25143;-83
2023/03/06 07:28:07;;;;;;;11.13;5.13;;;2.40;99.90;;;;;;5039130;28;25120;-88
2023/03/06 07:30:35;;;;;;;14.73;6.10;;;2.40;99.90;;;;;;5020784;28;25092;-84
2023/03/06 07:33:02;;;;;;;12.48;5.90;;;2.50;99.90;;;;;;5021195;28;25164;-87
2023/03/06 07:35:29;;;;;;;11.55;5.45;;;2.50;99.90;;;;;;5020806;28;25104;-85
2023/03/06 07:37:57;;;;;;;11.82;4.78;;;2.50;99.90;;;;;;5020921;28;25060;-72
2023/03/06 07:40:25;;;;;;;12.32;5.90;;;2.50;99.90;;;;;;5039243;28;25072;-72
2023/03/06 07:42:57;;;;;;;9.52;4.07;;;2.50;99.90;;;;;;5045685;28;25100;-71
2023/03/06 07:45:25;;;;;;;11.60;6.00;;;2.50;99.90;;;;;;5058320;28;25056;-71
2023/03/06 07:47:53;;;;;;;14.95;6.82;;;2.50;99.90;;;;;;5058389;28;25060;-73
2023/03/06 07:50:21;;;;;;;14.98;6.20;;;2.50;99.90;;;;;;5058534;28;25079;-71
2023/03/06 07:52:49;;;;;;;17.50;6.00;;;2.50;99.90;;;;;;5059034;28;25135;-71
2023/03/06 07:55:17;;;;;;;12.93;6.68;;;2.50;99.90;;;;;;5058631;28;25103;-71
2023/03/06 07:57:44;;;;;;;10.13;5.88;;;2.50;99.90;;;;;;5058640;28;25067;-72
2023/03/06 08:00:16;;;;;;;8.48;4.93;;;2.60;99.90;;;;;;5058561;28;25056;-72
2023/03/06 08:02:43;;;;;;;14.07;6.10;;;2.60;99.90;;;;;;5058223;28;25070;-71
2023/03/06 08:05:14;;;;;;;9.57;5.13;;;2.60;99.90;;;;;;5058294;28;25092;-73
2023/03/06 08:07:43;;;;;;;13.68;5.82;;;2.60;99.90;;;;;;5057915;28;25069;-71
2023/03/06 08:10:14;;;;;;;11.90;5.57;;;2.60;99.90;;;;;;5058190;28;25086;-71
2023/03/06 08:12:42;;;;;;;12.32;5.93;;;2.60;99.90;;;;;;5057844;28;25106;-71
2023/03/06 08:15:10;;;;;;;11.38;6.40;;;2.70;99.90;;;;;;5057936;28;25056;-71
2023/03/06 08:17:38;;;;;;;12.50;6.03;;;2.70;99.90;;;;;;5057703;28;25080;-71
2023/03/06 08:20:06;;;;;;;14.23;6.13;;;2.70;99.90;;;;;;5057727;28;25054;-72
2023/03/06 08:22:34;;;;;;;10.05;5.70;;;2.60;99.90;;;;;;5058609;28;25072;-71
2023/03/06 08:25:03;;;;;;;11.02;5.90;;;2.60;99.90;;;;;;5056445;28;25071;-72
2023/03/06 08:27:32;;;;;;;11.98;6.80;;;2.60;99.90;;;;;;5057665;28;25083;-72
2023/03/06 08:30:00;;;;;;;15.77;6.82;;;2.60;99.90;;;;;;5058123;28;25100;-72
2023/03/06 08:32:28;;;;;;;13.63;7.65;;;2.70;99.90;;;;;;5057492;28;25107;-71
2023/03/06 08:34:56;;;;;;;13.82;7.18;;;2.70;99.90;;;;;;5056385;28;25049;-71
2023/03/06 08:37:23;;;;;;;14.00;7.85;;;2.80;99.90;;;;;;5057382;28;25074;-71
2023/03/06 08:39:51;;;;;;;16.98;8.43;;;2.80;99.90;;;;;;5058174;28;25097;-71
2023/03/06 08:42:19;;;;;;;13.93;7.32;;;2.80;99.90;;;;;;5047959;28;25119;-72
2023/03/06 08:44:46;;;;;;;18.80;8.93;;;2.80;99.90;;;;;;5037637;28;25057;-71
2023/03/06 08:47:13;;;;;;;12.88;7.32;;;2.80;99.90;;;;;;5037468;28;25129;-71
2023/03/06 08:49:40;;;;;;;17.33;8.20;;;2.70;99.90;;;;;;5037744;28;25067;-72
2023/03/06 08:52:08;;;;;;;14.35;7.25;;;2.70;99.90;;;;;;5019729;28;25084;-71
2023/03/06 08:54:35;;;;;;;17.85;8.75;;;2.70;99.90;;;;;;5019607;28;25128;-72
2023/03/06 08:57:03;;;;;;;13.93;7.55;;;2.70;99.90;;;;;;5037274;28;25072;-71
2023/03/06 08:59:30;;;;;;;15.60;8.60;;;2.80;99.90;;;;;;5037285;28;25105;-71
2023/03/06 09:01:58;;;;;;;13.00;6.70;;;2.90;99.90;;;;;;5037012;28;25064;-71
2023/03/06 09:04:30;;;;;;;13.60;7.80;;;2.90;99.90;;;;;;5036878;28;25139;-72
2023/03/06 09:06:59;;;;;;;14.13;7.53;;;2.90;99.90;;;;;;5037273;28;25100;-71
2023/03/06 09:09:27;;;;;;;14.00;7.78;;;3.00;99.90;;;;;;5019314;28;25064;-72
2023/03/06 09:11:55;;;;;;;12.90;7.40;;;3.00;99.90;;;;;;5019341;28;25112;-72
2023/03/06 09:14:22;;;;;;;15.13;7.80;;;3.00;99.90;;;;;;5037039;28;25054;-71
2023/03/06 09:16:49;;;;;;;14.73;7.90;;;3.00;99.90;;;;;;5018854;28;25139;-71
2023/03/06 09:19:18;;;;;;;15.15;8.85;;;2.90;99.90;;;;;;5037263;28;25073;-71
2023/03/06 09:21:45;;;;;;;18.05;9.10;;;2.80;99.90;;;;;;5019197;28;25056;-71
2023/03/06 09:24:12;;;;;;;17.08;8.05;;;2.80;99.90;;;;;;5019993;28;25049;-72
2023/03/06 09:26:39;;;;;;;17.00;7.80;;;2.80;99.90;;;;;;5036687;28;25057;-72
2023/03/06 09:29:07;;;;;;;14.40;7.93;;;2.70;99.90;;;;;;5036553;28;25131;-72
2023/03/06 09:31:34;;;;;;;16.60;7.82;;;2.70;99.90;;;;;;5036569;28;25097;-71
2023/03/06 09:34:02;;;;;;;11.77;6.63;;;2.60;99.90;;;;;;5036477;28;25058;-71
2023/03/06 09:36:30;;;;;;;14.52;7.68;;;2.60;99.90;;;;;;5019098;28;25099;-71
2023/03/06 09:38:57;;;;;;;13.82;7.65;;;2.50;99.90;;;;;;5036964;28;25074;-72
2023/03/06 09:41:50;;;;;;;17.13;8.55;;;2.50;99.90;;;;;;5036258;28;25060;-71
2023/03/06 09:44:30;;;;;;;17.92;7.90;;;2.50;99.90;;;;;;5034598;28;25065;-71
2023/03/06 09:47:20;;;;;;;12.48;6.63;;;2.60;99.90;;;;;;5036370;28;25068;-71
2023/03/06 09:50:19;;;;;;;16.08;7.80;;;2.60;99.90;;;;;;5018779;28;25112;-71
2023/03/06 09:53:22;;;;;;;14.70;7.45;;;2.50;99.90;;;;;;5036584;28;25078;-71
2023/03/06 09:56:13;;;;;;;11.82;6.32;;;2.40;99.90;;;;;;5036525;28;25073;-71
2023/03/06 09:58:57;;;;;;;12.98;6.65;;;2.40;99.90;;;;;;5036479;28;25079;-73
2023/03/06 10:01:30;;;;;;;12.52;7.13;;;2.30;99.90;;;;;;5036625;28;25091;-72
2023/03/06 10:04:30;;;;;;;10.82;6.28;;;2.30;99.90;;;;;;5036168;28;25072;-74
2023/03/06 10:07:14;;;;;;;15.40;7.57;;;2.20;99.90;;;;;;5036448;28;25106;-74
2023/03/06 10:10:03;;;;;;;13.75;7.72;;;2.20;99.90;;;;;;5036345;28;25065;-74
2023/03/06 10:12:46;;;;;;;15.32;7.10;;;2.10;99.90;;;;;;5036222;28;25047;-73
2023/03/06 10:15:25;;;;;;;13.35;5.60;;;2.10;99.90;;;;;;5036358;28;25106;-73
2023/03/06 10:17:52;;;;;;;11.95;5.95;;;2.10;99.90;;;;;;5036326;28;25071;-73
2023/03/06 10:20:27;;;;;;;10.32;5.28;;;2.10;99.90;;;;;;5018651;28;25062;-73
2023/03/06 10:23:05;;;;;;;14.13;6.70;;;2.10;99.90;;;;;;5035906;28;25485;-73
2023/03/06 10:25:46;;;;;;;11.05;6.18;;;2.20;99.90;;;;;;5035896;28;25075;-73
2023/03/06 10:28:21;;;;;;;12.25;6.03;;;2.20;99.90;;;;;;5035978;28;25103;-73
2023/03/06 10:31:19;;;;;;;12.15;6.47;;;2.20;99.90;;;;;;5039287;28;25111;-71
2023/03/06 10:34:15;;;;;;;11.10;5.95;;;2.30;99.90;;;;;;5036386;28;25072;-72
2023/03/06 10:36:42;;;;;;;10.82;5.72;;;2.50;99.90;;;;;;5039701;28;25098;-72
2023/03/06 10:42:08;;;;;;;10.82;5.13;;;2.60;99.90;;;;;;5043596;28;25105;-73
2023/03/06 10:44:36;;;;;;;12.48;6.05;;;2.50;99.90;;;;;;5039729;28;25081;-72
2023/03/06 10:47:27;;;;;;;12.93;6.75;;;2.50;99.90;;;;;;5039529;28;25124;-72
2023/03/06 10:50:00;;;;;;;12.23;5.72;;;2.40;99.90;;;;;;5039455;28;25134;-72
2023/03/06 10:52:33;;;;;;;12.88;5.82;;;2.40;99.90;;;;;;5040121;28;25146;-73
2023/03/06 10:55:18;;;;;;;11.48;5.07;;;2.30;99.90;;;;;;5039270;28;25110;-74
2023/03/06 10:57:45;;;;;;;10.25;5.95;;;2.20;99.90;;;;;;5039594;28;25120;-72
2023/03/06 11:00:31;;;;;;;10.70;5.57;;;2.20;99.90;;;;;;5039119;28;25122;-73
2023/03/06 11:03:23;;;;;;;11.75;5.47;;;2.20;99.90;;;;;;5039715;28;25114;-72
2023/03/06 11:06:12;;;;;;;8.38;4.95;;;2.20;99.90;;;;;;5039331;28;25117;-73
2023/03/06 11:08:42;;;;;;;10.82;4.82;;;2.20;99.90;;;;;;5039137;28;25061;-73
2023/03/06 11:11:15;;;;;;;10.73;5.90;;;2.20;99.90;;;;;;5039453;28;25072;-73
2023/03/06 11:13:47;;;;;;;10.80;5.20;;;2.30;99.90;;;;;;5040229;28;25082;-75
2023/03/06 11:16:29;;;;;;;10.95;6.03;;;2.40;99.90;;;;;;5039147;28;25073;-76
2023/03/06 11:19:05;;;;;;;9.38;5.28;;;2.40;99.90;;;;;;5039637;28;25143;-78
2023/03/06 11:21:34;;;;;;;9.07;4.85;;;2.50;99.90;;;;;;5038838;28;25070;-78
2023/03/06 11:24:14;;;;;;;9.25;5.57;;;2.50;99.90;;;;;;5038795;28;25065;-77
2023/03/06 11:26:51;;;;;;;10.02;5.60;;;2.50;99.90;;;;;;5039203;28;25110;-78
2023/03/06 11:29:45;;;;;;;44.25;20.70;;;2.50;99.90;;;;;;5038664;28;25064;-81
2023/03/06 11:32:43;;;;;;;8.70;5.07;;;2.50;99.90;;;;;;5028800;28;25062;-79
2023/03/06 11:35:21;;;;;;;8.73;5.03;;;2.50;99.90;;;;;;5039072;28;25114;-78
2023/03/06 11:38:00;;;;;;;8.93;4.28;;;2.50;99.90;;;;;;5021018;28;25107;-77
2023/03/06 11:40:41;;;;;;;8.77;5.05;;;2.60;99.90;;;;;;5020488;28;25058;-79
2023/03/06 11:43:45;;;;;;;10.40;5.60;;;2.70;99.90;;;;;;5038516;28;25086;-79
2023/03/06 11:46:43;;;;;;;8.25;4.65;;;2.80;99.90;;;;;;5038791;28;25086;-79
2023/03/06 11:49:33;;;;;;;8.00;4.45;;;3.30;99.90;;;;;;5032888;28;25073;-78
2023/03/06 11:52:11;;;;;;;7.15;4.57;;;3.90;99.90;;;;;;5038406;28;25113;-78
2023/03/06 11:54:39;;;;;;;5.10;3.20;;;4.40;99.90;;;;;;5038549;28;25130;-78
2023/03/06 11:57:22;;;;;;;11.77;5.47;;;4.90;99.90;;;;;;5038980;28;25087;-77
2023/03/06 12:00:23;;;;;;;4.80;3.00;;;5.20;99.90;;;;;;5020622;28;25147;-78
2023/03/06 12:03:10;;;;;;;4.00;2.47;;;5.50;99.90;;;;;;5022249;28;25086;-78
2023/03/06 12:05:52;;;;;;;4.57;2.75;;;5.60;99.90;;;;;;5038425;28;25059;-77
2023/03/06 12:08:44;;;;;;;3.88;2.20;;;5.50;99.90;;;;;;5020431;28;25063;-78
2023/03/06 12:11:48;;;;;;;4.30;2.30;;;5.50;99.90;;;;;;5038456;28;25064;-77
2023/03/06 12:14:43;;;;;;;5.50;2.80;;;5.30;99.90;;;;;;5018726;28;25064;-77
2023/03/06 12:17:16;;;;;;;5.10;2.40;;;5.20;99.90;;;;;;5037770;28;25127;-77
2023/03/06 12:19:52;;;;;;;5.07;2.72;;;5.10;99.90;;;;;;5037998;28;25126;-77
2023/03/06 12:22:45;;;;;;;2.85;1.80;;;5.10;99.90;;;;;;5037894;28;25072;-78
2023/03/06 12:25:34;;;;;;;3.13;1.85;;;5.10;99.90;;;;;;5038110;28;25078;-78
2023/03/06 12:28:27;;;;;;;3.58;2.10;;;5.20;99.90;;;;;;5037567;28;25070;-78
2023/03/06 12:31:31;;;;;;;3.38;2.13;;;5.30;99.90;;;;;;5037967;28;25110;-78
2023/03/06 12:34:09;;;;;;;5.82;2.75;;;5.30;99.90;;;;;;5037757;28;25066;-77
2023/03/06 12:37:04;;;;;;;3.03;2.13;;;5.20;99.90;;;;;;5037464;28;25103;-77
2023/03/06 12:39:52;;;;;;;3.75;2.80;;;5.10;99.90;;;;;;5037912;28;25143;-77
2023/03/06 12:42:32;;;;;;;4.60;2.50;;;5.00;99.90;;;;;;5037602;28;25113;-77
2023/03/06 12:45:03;;;;;;;2.50;1.60;;;4.90;99.90;;;;;;5037518;28;25122;-77
2023/03/06 12:47:39;;;;;;;5.60;2.80;;;5.00;99.90;;;;;;5037556;28;25054;-76
2023/03/06 12:50:22;;;;;;;4.18;2.70;;;4.90;99.90;;;;;;5037478;28;25130;-77
2023/03/06 12:52:55;;;;;;;4.88;2.63;;;4.90;99.90;;;;;;5036783;28;25078;-77
2023/03/06 12:55:23;;;;;;;4.55;2.40;;;5.00;99.90;;;;;;5019628;28;25050;-77
2023/03/06 12:57:51;;;;;;;5.47;3.58;;;4.90;99.90;;;;;;5019493;28;25063;-77
2023/03/06 13:00:57;;;;;;;9.85;6.07;;;4.90;99.90;;;;;;5037222;28;25058;-77
2023/03/06 13:03:38;;;;;;;7.30;3.97;;;4.90;99.90;;;;;;5035921;28;25054;-77
2023/03/06 13:06:09;;;;;;;5.30;3.35;;;4.80;99.90;;;;;;5037105;28;25072;-78
2023/03/06 13:08:55;;;;;;;4.68;2.90;;;4.90;99.90;;;;;;5019288;28;25053;-76
2023/03/06 13:11:37;;;;;;;4.75;2.85;;;4.80;99.90;;;;;;5037549;28;25117;-76
2023/03/06 13:14:30;;;;;;;5.90;3.50;;;4.70;99.90;;;;;;5037049;28;25092;-76